| time (UTC) | temp F | wind direction | speed MPH | gust MPH | rain 1hr in | rain 24hr in | rain mn in | humidity % | barometer mb |
| 20260904083104 | 67 | 0 | 0.0 | 0.0 | 0.00 | 0.00 | 0.00 | 40 | 1025.0 |
| 20260904081552 | 68 | 0 | 0.0 | 1.0 | 0.00 | 0.00 | 0.00 | 38 | 1025.0 |
| 20260904080111 | 68 | 0 | 1.0 | 5.0 | 0.00 | 0.00 | 0.00 | 38 | 1024.8 |
| 20260904074608 | 68 | 0 | 0.0 | 2.0 | 0.00 | 0.00 | 0.00 | 37 | 1024.8 |
| 20260904073055 | 68 | 0 | 0.0 | 0.0 | 0.00 | 0.00 | 0.00 | 38 | 1024.9 |
| 20260904071556 | 68 | 0 | 0.0 | 2.0 | 0.00 | 0.00 | 0.00 | 40 | 1025.0 |
| 20260904070104 | 68 | 0 | 0.0 | 1.0 | 0.00 | 0.00 | 0.00 | 38 | 1025.1 |
| 20260904064607 | 69 | 321 | 0.0 | 2.0 | 0.00 | 0.00 | 0.00 | 39 | 1025.0 |
| 20260904063059 | 70 | 0 | 0.0 | 0.0 | 0.00 | 0.00 | 0.00 | 40 | 1025.3 |
| 20260904061605 | 70 | 0 | 0.0 | 0.0 | 0.00 | 0.00 | 0.00 | 37 | 1025.5 |
| 20260904060121 | 70 | 209 | 0.0 | 1.0 | 0.00 | 0.00 | 0.00 | 36 | 1025.5 |
| 20260904054608 | 70 | 0 | 0.0 | 7.0 | 0.00 | 0.00 | 0.00 | 37 | 1025.5 |
| 20260904053148 | 70 | 0 | 0.0 | 0.0 | 0.00 | 0.00 | 0.00 | 37 | 1025.2 |
| 20260904051615 | 70 | 0 | 0.0 | 0.0 | 0.00 | 0.00 | 0.00 | 38 | 1024.8 |
| 20260904050108 | 70 | 0 | 0.0 | 0.0 | 0.00 | 0.00 | 0.00 | 37 | 1024.9 |
| 20260904044604 | 71 | 0 | 0.0 | 0.0 | 0.00 | 0.00 | 0.00 | 36 | 1024.7 |
| 20260904043055 | 70 | 0 | 0.0 | 0.0 | 0.00 | 0.00 | 0.00 | 37 | 1025.0 |
| 20260904041602 | 72 | 0 | 0.0 | 0.0 | 0.00 | 0.00 | 0.00 | 39 | 1024.9 |
| 20260904040057 | 73 | 0 | 0.0 | 0.0 | 0.00 | 0.00 | 0.00 | 38 | 1024.8 |
| 20260904034551 | 74 | 0 | 0.0 | 1.0 | 0.00 | 0.00 | 0.00 | 35 | 1024.6 |
| 20260904033108 | 75 | 0 | 0.0 | 1.0 | 0.00 | 0.00 | 0.00 | 35 | 1024.5 |
| 20260904031556 | 77 | 275 | 0.0 | 5.0 | 0.00 | 0.00 | 0.00 | 34 | 1024.6 |
| 20260904030105 | 77 | 0 | 1.0 | 4.0 | 0.00 | 0.00 | 0.00 | 32 | 1024.4 |
| 20260904024622 | 78 | 246 | 1.0 | 4.0 | 0.00 | 0.00 | 0.00 | 31 | 1024.2 |
| 20260904023105 | 78 | 305 | 1.0 | 7.0 | 0.00 | 0.00 | 0.00 | 30 | 1024.2 |
| 20260904021605 | 78 | 221 | 1.0 | 6.0 | 0.00 | 0.00 | 0.00 | 29 | 1023.9 |
| 20260904020104 | 79 | 311 | 0.0 | 3.0 | 0.00 | 0.00 | 0.00 | 28 | 1023.8 |
| 20260904014611 | 80 | 0 | 0.0 | 1.0 | 0.00 | 0.00 | 0.00 | 28 | 1023.7 |
| 20260904013103 | 81 | 0 | 0.0 | 2.0 | 0.00 | 0.00 | 0.00 | 27 | 1023.7 |
| 20260904011603 | 83 | 0 | 0.0 | 1.0 | 0.00 | 0.00 | 0.00 | 24 | 1023.7 |
| 20260904010105 | 84 | 0 | 0.0 | 2.0 | 0.00 | 0.00 | 0.00 | 24 | 1023.7 |
| 20260904004605 | 87 | 141 | 1.0 | 7.0 | 0.00 | 0.00 | 0.00 | 21 | 1023.8 |
| 20260904003055 | 89 | 65 | 1.0 | 6.0 | 0.00 | 0.00 | 0.00 | 21 | 1023.7 |
| 20260904001610 | 89 | 40 | 1.0 | 4.0 | 0.00 | 0.00 | 0.00 | 21 | 1023.7 |
| 20260904000117 | 90 | 40 | 1.0 | 8.0 | 0.00 | 0.00 | 0.00 | 20 | 1023.5 |
| 20260903234557 | 90 | 281 | 2.0 | 11.0 | 0.00 | 0.00 | 0.00 | 20 | 1023.5 |
| 20260903233125 | 92 | 0 | 1.0 | 9.0 | 0.00 | 0.00 | 0.00 | 18 | 1023.5 |
| 20260903231555 | 91 | 0 | 1.0 | 8.0 | 0.00 | 0.00 | 0.00 | 17 | 1023.4 |
| 20260903230114 | 92 | 298 | 2.0 | 7.0 | 0.00 | 0.00 | 0.00 | 18 | 1023.4 |
| 20260903224628 | 92 | 0 | 1.0 | 9.0 | 0.00 | 0.00 | 0.00 | 17 | 1023.6 |
| 20260903223131 | 92 | 0 | 0.0 | 8.0 | 0.00 | 0.00 | 0.00 | 19 | 1023.7 |
| 20260903221601 | 92 | 5 | 1.0 | 6.0 | 0.00 | 0.00 | 0.00 | 18 | 1023.8 |
| 20260903220104 | 92 | 79 | 1.0 | 6.0 | 0.00 | 0.00 | 0.00 | 19 | 1024.2 |
| 20260903214606 | 91 | 314 | 1.0 | 8.0 | 0.00 | 0.00 | 0.00 | 21 | 1024.2 |
| 20260903213108 | 91 | 100 | 1.0 | 7.0 | 0.00 | 0.00 | 0.00 | 19 | 1024.2 |
| 20260903211603 | 92 | 115 | 1.0 | 7.0 | 0.00 | 0.00 | 0.00 | 19 | 1024.3 |
| 20260903210142 | 91 | 178 | 0.0 | 8.0 | 0.00 | 0.00 | 0.00 | 19 | 1024.5 |
| 20260903204559 | 90 | 0 | 1.0 | 8.0 | 0.00 | 0.00 | 0.00 | 21 | 1024.8 |
| 20260903203057 | 90 | 0 | 1.0 | 9.0 | 0.00 | 0.00 | 0.00 | 19 | 1025.0 |
| 20260903201551 | 90 | 0 | 0.0 | 4.0 | 0.00 | 0.00 | 0.00 | 21 | 1025.2 |
| 20260903200105 | 89 | 0 | 0.0 | 7.0 | 0.00 | 0.00 | 0.00 | 21 | 1025.2 |
| 20260903194559 | 89 | 0 | 1.0 | 5.0 | 0.00 | 0.00 | 0.00 | 22 | 1025.5 |
| 20260903193106 | 88 | 0 | 1.0 | 6.0 | 0.00 | 0.00 | 0.00 | 21 | 1025.5 |
| 20260903191605 | 88 | 0 | 1.0 | 9.0 | 0.00 | 0.00 | 0.00 | 21 | 1025.8 |
| 20260903190107 | 88 | 114 | 1.0 | 7.0 | 0.00 | 0.00 | 0.00 | 22 | 1026.0 |
| 20260903184556 | 87 | 90 | 1.0 | 7.0 | 0.00 | 0.00 | 0.00 | 22 | 1026.1 |
| 20260903183054 | 87 | 145 | 2.0 | 7.0 | 0.00 | 0.00 | 0.00 | 22 | 1026.4 |
| 20260903181601 | 86 | 148 | 2.0 | 7.0 | 0.00 | 0.00 | 0.00 | 22 | 1026.6 |
| 20260903180105 | 85 | 87 | 1.0 | 9.0 | 0.00 | 0.00 | 0.00 | 24 | 1026.7 |
| 20260903174558 | 85 | 26 | 1.0 | 6.0 | 0.00 | 0.00 | 0.00 | 26 | 1026.8 |
| 20260903173055 | 84 | 202 | 2.0 | 11.0 | 0.00 | 0.00 | 0.00 | 24 | 1027.0 |
| 20260903171613 | 84 | 80 | 2.0 | 7.0 | 0.00 | 0.00 | 0.00 | 26 | 1027.1 |
| 20260903170107 | 83 | 0 | 1.0 | 6.0 | 0.00 | 0.00 | 0.00 | 29 | 1027.3 |
| 20260903164600 | 82 | 0 | 2.0 | 7.0 | 0.00 | 0.00 | 0.00 | 32 | 1027.2 |
| 20260903163106 | 81 | 69 | 1.0 | 7.0 | 0.00 | 0.00 | 0.00 | 34 | 1027.2 |
| 20260903161607 | 80 | 0 | 1.0 | 6.0 | 0.00 | 0.00 | 0.00 | 31 | 1027.3 |
| 20260903160052 | 78 | 0 | 1.0 | 6.0 | 0.00 | 0.00 | 0.00 | 34 | 1027.3 |
| 20260903154558 | 78 | 86 | 2.0 | 6.0 | 0.00 | 0.00 | 0.00 | 38 | 1027.3 |
| 20260903153055 | 77 | 145 | 0.0 | 3.0 | 0.00 | 0.00 | 0.00 | 33 | 1027.2 |
| 20260903151603 | 75 | 0 | 1.0 | 5.0 | 0.00 | 0.00 | 0.00 | 37 | 1027.4 |
| 20260903150108 | 73 | 0 | 0.0 | 4.0 | 0.00 | 0.00 | 0.00 | 41 | 1027.5 |
| 20260903144557 | 71 | 0 | 0.0 | 1.0 | 0.00 | 0.00 | 0.00 | 46 | 1027.6 |
| 20260903143101 | 69 | 0 | 0.0 | 2.0 | 0.00 | 0.00 | 0.00 | 47 | 1027.6 |
| 20260903141549 | 65 | 0 | 0.0 | 0.0 | 0.00 | 0.00 | 0.00 | 53 | 1027.6 |
| 20260903140114 | 61 | 0 | 0.0 | 2.0 | 0.00 | 0.00 | 0.00 | 57 | 1027.5 |
| 20260903134559 | 58 | 0 | 0.0 | 1.0 | 0.00 | 0.00 | 0.00 | 60 | 1027.5 |
| 20260903133055 | 58 | 0 | 0.0 | 2.0 | 0.00 | 0.00 | 0.00 | 62 | 1027.3 |
| 20260903131607 | 57 | 118 | 0.0 | 3.0 | 0.00 | 0.00 | 0.00 | 62 | 1027.2 |
| 20260903130055 | 57 | 0 | 0.0 | 3.0 | 0.00 | 0.00 | 0.00 | 63 | 1026.9 |
| 20260903124558 | 57 | 0 | 0.0 | 0.0 | 0.00 | 0.00 | 0.00 | 62 | 1026.8 |
| 20260903123106 | 57 | 0 | 0.0 | 4.0 | 0.00 | 0.00 | 0.00 | 60 | 1026.8 |
| 20260903121625 | 58 | 0 | 0.0 | 0.0 | 0.00 | 0.00 | 0.00 | 60 | 1026.6 |
| 20260903120059 | 58 | 0 | 0.0 | 2.0 | 0.00 | 0.00 | 0.00 | 60 | 1026.6 |
| 20260903114604 | 57 | 0 | 0.0 | 0.0 | 0.00 | 0.00 | 0.00 | 56 | 1026.4 |
| 20260903113105 | 57 | 0 | 0.0 | 0.0 | 0.00 | 0.00 | 0.00 | 60 | 1026.2 |
| 20260903111603 | 58 | 0 | 0.0 | 0.0 | 0.00 | 0.00 | 0.00 | 60 | 1026.4 |
| 20260903110104 | 58 | 0 | 0.0 | 0.0 | 0.00 | 0.00 | 0.00 | 63 | 1026.3 |
| 20260903104607 | 58 | 0 | 0.0 | 0.0 | 0.00 | 0.00 | 0.00 | 61 | 1026.3 |
| 20260903103105 | 59 | 0 | 0.0 | 0.0 | 0.00 | 0.00 | 0.00 | 61 | 1026.3 |
| 20260903101605 | 59 | 0 | 0.0 | 0.0 | 0.00 | 0.00 | 0.00 | 63 | 1026.4 |
| 20260903100106 | 58 | 0 | 0.0 | 0.0 | 0.00 | 0.00 | 0.00 | 61 | 1026.2 |
| 20260903094612 | 59 | 0 | 0.0 | 0.0 | 0.00 | 0.00 | 0.00 | 67 | 1026.4 |
| 20260903093107 | 59 | 0 | 0.0 | 0.0 | 0.00 | 0.00 | 0.00 | 67 | 1026.4 |
| 20260903091605 | 60 | 0 | 0.0 | 0.0 | 0.00 | 0.00 | 0.00 | 68 | 1026.4 |
| 20260903090100 | 60 | 0 | 0.0 | 0.0 | 0.00 | 0.00 | 0.00 | 66 | 1026.3 |
| 20260903084605 | 61 | 0 | 0.0 | 0.0 | 0.00 | 0.00 | 0.00 | 65 | 1026.5 |